Time;durP1;ratioP1;P1;durP2;ratioP2;P2;SDS_P1;SDS_P2;PMS_P1;PMS_P2;Temp;Humidity;BMP_temperature;BMP_pressure;BME280_temperature;BME280_humidity;BME280_pressure;Samples;Min_cycle;Max_cycle;Signal;HPM_P1;HPM_P2
2023/06/27 00:00:21;;;;;;;1.00;0.43;;;;;;;21.51;55.05;99608.91;4464607;31;33226;-86
2023/06/27 00:02:53;;;;;;;1.77;0.52;;;;;;;21.68;54.04;99596.56;4476771;32;33340;-87
2023/06/27 00:05:21;;;;;;;0.40;0.40;;;;;;;21.73;53.70;99599.69;4465390;31;33700;-87
2023/06/27 00:07:48;;;;;;;1.87;0.98;;;;;;;21.43;54.20;99601.53;4464868;31;33975;-88
2023/06/27 00:10:16;;;;;;;0.20;0.20;;;;;;;21.53;54.06;99600.69;4475777;31;34284;-86
2023/06/27 00:12:44;;;;;;;0.50;0.50;;;;;;;21.52;54.37;99609.75;4468449;31;32903;-87
2023/06/27 00:15:12;;;;;;;0.57;0.57;;;;;;;21.68;53.96;99600.09;4464698;31;34042;-87
2023/06/27 00:17:42;;;;;;;0.70;0.52;;;;;;;21.45;54.16;99610.28;4461838;31;34057;-86
2023/06/27 00:20:11;;;;;;;2.92;0.85;;;;;;;21.51;54.07;99613.41;4476046;31;32595;-86
2023/06/27 00:22:40;;;;;;;0.68;0.60;;;;;;;21.51;54.13;99610.72;4462591;31;32962;-86
2023/06/27 00:25:10;;;;;;;1.45;1.35;;;;;;;21.52;54.12;99615.13;4452842;31;33644;-86
2023/06/27 00:27:37;;;;;;;1.08;0.65;;;;;;;21.41;54.52;99616.09;4460449;32;33245;-85
2023/06/27 00:30:06;;;;;;;1.62;0.80;;;;;;;21.40;54.69;99609.88;4475491;31;32880;-86
2023/06/27 00:32:35;;;;;;;0.45;0.45;;;;;;;21.40;54.95;99607.19;4489062;31;33440;-86
2023/06/27 00:35:03;;;;;;;1.45;0.73;;;;;;;21.47;54.46;99608.34;4461248;31;33442;-86
2023/06/27 00:37:31;;;;;;;0.37;0.35;;;;;;;21.57;54.19;99611.03;4455833;31;33125;-86
2023/06/27 00:39:59;;;;;;;1.65;0.98;;;;;;;21.46;54.36;99614.69;4468398;31;34193;-86
2023/06/27 00:42:27;;;;;;;0.77;0.77;;;;;;;21.50;54.36;99611.72;4463768;31;33504;-86
2023/06/27 00:44:55;;;;;;;1.83;1.17;;;;;;;21.47;54.63;99615.53;4489975;31;33212;-86
2023/06/27 00:47:23;;;;;;;0.57;0.55;;;;;;;21.50;54.34;99615.25;4479174;31;34762;-86
2023/06/27 00:49:51;;;;;;;0.37;0.37;;;;;;;21.47;54.53;99626.28;4464737;31;33823;-86
2023/06/27 00:52:19;;;;;;;0.32;0.32;;;;;;;21.61;54.12;99628.56;4464839;31;32649;-86
2023/06/27 00:54:46;;;;;;;0.47;0.47;;;;;;;21.36;55.12;99621.03;4460608;32;34653;-86
2023/06/27 00:57:14;;;;;;;0.10;0.10;;;;;;;21.40;55.10;99607.19;4462676;31;32262;-86
2023/06/27 00:59:43;;;;;;;0.82;0.82;;;;;;;21.38;55.19;99609.19;4476210;31;33904;-86
2023/06/27 01:02:12;;;;;;;0.40;0.40;;;;;;;21.30;55.59;99610.81;4465674;31;32724;-86
2023/06/27 01:04:39;;;;;;;0.82;0.65;;;;;;;21.31;55.43;99607.19;4460043;31;32551;-87
2023/06/27 01:07:11;;;;;;;1.65;0.77;;;;;;;21.30;55.45;99603.63;4462821;31;33242;-87
2023/06/27 01:09:52;;;;;;;0.65;0.65;;;;;;;21.22;55.55;99607.03;4476529;31;34445;-86
2023/06/27 01:12:44;;;;;;;1.50;1.40;;;;;;;21.15;55.81;99605.88;4461760;32;32706;-88
2023/06/27 01:15:12;;;;;;;0.43;0.43;;;;;;;21.26;55.63;99598.66;4475476;31;33829;-88
2023/06/27 01:17:41;;;;;;;0.20;0.20;;;;;;;21.22;55.91;99588.22;4461563;31;33038;-88
2023/06/27 01:20:09;;;;;;;0.73;0.57;;;;;;;21.18;56.04;99592.19;4449864;31;33446;-87
2023/06/27 01:22:41;;;;;;;0.55;0.55;;;;;;;21.27;55.69;99589.63;4449487;31;33053;-87
2023/06/27 01:25:12;;;;;;;0.22;0.22;;;;;;;21.18;56.06;99586.81;4462943;31;33713;-88
2023/06/27 01:27:39;;;;;;;0.40;0.30;;;;;;;21.21;56.06;99573.06;4462247;31;33043;-87
2023/06/27 01:30:08;;;;;;;0.80;0.45;;;;;;;21.14;56.44;99571.12;4463560;31;33561;-88
2023/06/27 01:32:46;;;;;;;0.70;0.70;;;;;;;21.13;56.24;99572.94;4462378;31;32370;-88
2023/06/27 01:35:29;;;;;;;0.70;0.70;;;;;;;21.09;56.39;99568.84;4463037;32;32506;-88
2023/06/27 01:38:02;;;;;;;1.17;1.15;;;;;;;21.43;55.11;99558.56;4462398;31;33243;-89
2023/06/27 01:40:33;;;;;;;2.85;1.00;;;;;;;21.04;56.27;99564.88;4462091;31;34592;-88
2023/06/27 01:43:13;;;;;;;1.43;0.67;;;;;;;21.12;56.03;99560.50;4452186;31;33132;-88
2023/06/27 01:45:41;;;;;;;2.37;0.60;;;;;;;20.95;56.78;99555.84;4465361;31;32573;-88
2023/06/27 01:48:11;;;;;;;0.73;0.73;;;;;;;20.95;56.54;99554.00;4477695;31;33245;-88
2023/06/27 01:50:38;;;;;;;0.85;0.82;;;;;;;20.79;57.34;99558.19;4463866;31;34174;-86
2023/06/27 01:53:06;;;;;;;0.80;0.40;;;;;;;20.85;57.30;99568.38;4444446;31;32014;-88
2023/06/27 01:55:35;;;;;;;1.30;0.52;;;;;;;20.83;57.47;99556.94;4455748;31;32515;-88
2023/06/27 01:58:02;;;;;;;2.80;0.93;;;;;;;20.83;57.59;99555.09;4469657;31;33686;-87
2023/06/27 02:00:30;;;;;;;2.67;0.68;;;;;;;20.92;57.30;99548.88;4460717;31;30501;-87
2023/06/27 02:02:58;;;;;;;0.60;0.30;;;;;;;20.89;57.11;99554.56;4463816;31;33164;-88
2023/06/27 02:05:25;;;;;;;0.60;0.60;;;;;;;20.80;57.61;99562.59;4460899;31;32490;-88
2023/06/27 02:07:53;;;;;;;0.10;0.10;;;;;;;20.84;57.82;99558.63;4474674;31;33946;-88
2023/06/27 02:10:21;;;;;;;0.85;0.85;;;;;;;20.58;58.77;99555.59;4477819;31;33584;-87
2023/06/27 02:12:50;;;;;;;0.10;0.10;;;;;;;20.42;59.21;99556.09;4462434;31;33113;-88
2023/06/27 02:15:18;;;;;;;0.65;0.47;;;;;;;20.54;58.49;99564.91;4451431;31;33013;-87
2023/06/27 02:17:46;;;;;;;1.65;1.55;;;;;;;20.58;58.21;99558.28;4448300;32;33982;-86
2023/06/27 02:20:14;;;;;;;0.98;0.90;;;;;;;20.56;58.43;99563.78;4463071;31;33719;-87
2023/06/27 02:22:41;;;;;;;3.30;0.85;;;;;;;20.63;58.17;99564.94;4450254;32;33779;-88
2023/06/27 02:25:09;;;;;;;4.50;0.40;;;;;;;20.71;57.68;99561.56;4465738;31;31964;-88
2023/06/27 02:27:37;;;;;;;0.95;0.40;;;;;;;20.73;57.43;99554.22;4452690;31;34308;-88
2023/06/27 02:30:05;;;;;;;1.67;0.88;;;;;;;20.62;57.59;99547.16;4465259;31;33181;-88
2023/06/27 02:32:33;;;;;;;0.37;0.32;;;;;;;20.63;57.59;99543.47;4464564;31;32220;-87
2023/06/27 02:35:01;;;;;;;0.65;0.65;;;;;;;20.70;57.37;99533.91;4466161;31;32897;-88
2023/06/27 02:37:28;;;;;;;0.62;0.50;;;;;;;20.62;57.63;99531.06;4493416;31;32894;-87
2023/06/27 02:39:57;;;;;;;1.27;0.30;;;;;;;20.58;57.88;99528.78;4470097;31;32927;-88
2023/06/27 02:42:25;;;;;;;1.05;0.60;;;;;;;20.56;58.03;99531.59;4437532;31;33821;-87
2023/06/27 02:44:54;;;;;;;0.80;0.75;;;;;;;20.55;58.30;99521.00;4465275;31;34529;-86
2023/06/27 02:47:22;;;;;;;0.35;0.35;;;;;;;20.65;57.96;99513.81;4463037;31;34809;-86
2023/06/27 02:49:50;;;;;;;0.70;0.70;;;;;;;20.73;57.68;99521.19;4471517;31;33171;-87
2023/06/27 02:52:17;;;;;;;0.52;0.52;;;;;;;20.63;57.93;99511.28;4458207;31;32240;-88
2023/06/27 02:54:46;;;;;;;0.28;0.28;;;;;;;20.75;57.20;99519.19;4490199;31;33460;-88
2023/06/27 02:57:14;;;;;;;0.50;0.50;;;;;;;20.56;58.21;99515.50;4464246;31;33706;-87
2023/06/27 02:59:43;;;;;;;0.77;0.73;;;;;;;20.40;58.73;99518.66;4457724;31;32841;-89
2023/06/27 03:02:11;;;;;;;0.55;0.40;;;;;;;20.58;57.85;99535.00;4449681;31;34178;-89
2023/06/27 03:04:39;;;;;;;0.80;0.80;;;;;;;20.50;58.33;99540.19;4467646;31;32921;-89
2023/06/27 03:07:07;;;;;;;3.05;0.95;;;;;;;20.57;58.04;99538.66;4465206;31;32615;-88
2023/06/27 03:09:36;;;;;;;0.43;0.43;;;;;;;20.43;58.93;99552.41;4470041;31;33509;-89
2023/06/27 03:12:05;;;;;;;0.75;0.68;;;;;;;20.38;59.51;99554.66;4459724;31;32336;-90
2023/06/27 03:14:32;;;;;;;0.20;0.20;;;;;;;20.46;59.18;99549.44;4451069;31;33195;-86
2023/06/27 03:17:00;;;;;;;0.65;0.60;;;;;;;20.59;58.42;99552.78;4463362;31;33827;-86
2023/06/27 03:19:28;;;;;;;0.82;0.68;;;;;;;20.50;58.82;99542.84;4446732;31;32522;-87
2023/06/27 03:22:11;;;;;;;0.65;0.65;;;;;;;20.64;58.24;99538.94;4465565;31;32956;-86
2023/06/27 03:24:39;;;;;;;0.88;0.75;;;;;;;20.63;58.22;99530.06;4460361;31;34070;-87
2023/06/27 03:27:06;;;;;;;0.40;0.40;;;;;;;20.59;58.09;99530.47;4461978;31;33468;-87
2023/06/27 03:29:35;;;;;;;0.85;0.85;;;;;;;20.51;58.34;99532.97;4455610;31;32749;-87
2023/06/27 03:32:04;;;;;;;0.55;0.55;;;;;;;20.51;58.46;99533.84;4470339;31;33687;-87
2023/06/27 03:34:34;;;;;;;0.70;0.70;;;;;;;20.79;57.42;99542.09;4465328;31;32716;-88
2023/06/27 03:37:01;;;;;;;0.68;0.68;;;;;;;20.66;58.23;99532.47;4462885;31;34003;-88
2023/06/27 03:39:29;;;;;;;0.70;0.65;;;;;;;20.77;58.29;99523.44;4463886;31;34361;-88
2023/06/27 03:41:57;;;;;;;1.45;0.85;;;;;;;20.91;57.77;99530.25;4462012;31;32983;-88
2023/06/27 03:44:25;;;;;;;0.47;0.40;;;;;;;20.93;57.86;99530.94;4453483;31;33492;-88
2023/06/27 03:46:53;;;;;;;0.57;0.57;;;;;;;20.93;58.16;99518.38;4448921;32;32508;-87
2023/06/27 03:49:21;;;;;;;0.73;0.73;;;;;;;20.95;58.39;99519.09;4466132;31;33450;-87
2023/06/27 03:51:50;;;;;;;0.60;0.60;;;;;;;21.11;57.85;99515.84;4449981;31;31908;-87
2023/06/27 03:54:18;;;;;;;0.60;0.60;;;;;;;21.11;57.87;99504.25;4462349;31;32366;-87
2023/06/27 03:56:47;;;;;;;0.35;0.35;;;;;;;21.17;57.21;99526.03;4452261;31;33215;-88
2023/06/27 03:59:14;;;;;;;0.55;0.55;;;;;;;21.35;56.67;99509.22;4452703;31;32545;-87
2023/06/27 04:01:42;;;;;;;0.60;0.60;;;;;;;21.44;56.72;99521.81;4451788;31;32714;-87
2023/06/27 04:04:10;;;;;;;1.77;1.62;;;;;;;21.59;55.78;99520.34;4478222;31;35131;-86
2023/06/27 04:06:41;;;;;;;1.00;0.85;;;;;;;21.73;55.77;99514.53;4466849;31;33427;-87
2023/06/27 04:09:09;;;;;;;1.05;0.93;;;;;;;21.87;55.90;99512.38;4460728;31;34432;-87
2023/06/27 04:11:37;;;;;;;2.00;0.10;;;;;;;21.83;55.06;99516.34;4480273;31;32968;-86
2023/06/27 04:14:04;;;;;;;0.28;0.28;;;;;;;22.00;55.16;99507.53;4478175;31;33854;-85
2023/06/27 04:16:31;;;;;;;2.83;0.28;;;;;;;22.01;55.09;99511.06;4450017;31;33451;-86
2023/06/27 04:18:59;;;;;;;0.93;0.85;;;;;;;22.08;54.24;99520.25;4464063;31;33085;-88
2023/06/27 04:21:27;;;;;;;0.30;0.30;;;;;;;21.98;52.97;99531.88;4462514;31;33356;-87
2023/06/27 04:23:56;;;;;;;0.88;0.68;;;;;;;21.76;53.89;99536.75;4477768;31;33880;-88
2023/06/27 04:26:25;;;;;;;0.35;0.35;;;;;;;22.08;53.59;99537.22;4451176;31;33052;-88
2023/06/27 04:28:53;;;;;;;0.77;0.75;;;;;;;22.10;53.83;99534.38;4479559;31;33903;-88
2023/06/27 04:31:22;;;;;;;1.08;0.82;;;;;;;21.82;54.57;99544.22;4462379;31;34306;-88
2023/06/27 04:33:55;;;;;;;0.98;0.93;;;;;;;22.00;52.98;99529.03;4462637;31;32622;-88
2023/06/27 04:36:25;;;;;;;0.28;0.28;;;;;;;22.05;54.09;99532.12;4472291;31;33770;-87
2023/06/27 04:38:54;;;;;;;0.65;0.65;;;;;;;21.98;54.12;99541.75;4452026;31;33548;-88
2023/06/27 04:41:21;;;;;;;0.82;0.82;;;;;;;22.00;54.50;99545.16;4476727;31;33459;-87
2023/06/27 04:43:49;;;;;;;0.30;0.30;;;;;;;22.17;53.61;99532.81;4465397;31;33546;-86
2023/06/27 04:46:17;;;;;;;1.73;0.77;;;;;;;22.22;54.02;99552.91;4459980;31;33804;-87
2023/06/27 04:48:46;;;;;;;1.08;0.98;;;;;;;22.23;52.82;99551.91;4456520;31;33027;-87
2023/06/27 04:51:14;;;;;;;0.55;0.55;;;;;;;22.31;53.13;99550.31;4448930;31;32902;-86
2023/06/27 04:53:41;;;;;;;2.37;1.70;;;;;;;22.40;53.23;99555.66;4465378;31;32764;-86
2023/06/27 04:56:10;;;;;;;0.28;0.28;;;;;;;22.41;54.27;99548.47;4469426;31;34608;-88
2023/06/27 04:58:38;;;;;;;1.77;1.08;;;;;;;22.43;55.52;99546.44;4456713;31;33798;-88
2023/06/27 05:01:05;;;;;;;0.20;0.20;;;;;;;22.20;58.07;99552.19;4482217;31;31761;-88
2023/06/27 05:03:33;;;;;;;0.47;0.47;;;;;;;22.03;59.43;99538.63;4446379;31;32265;-86
2023/06/27 05:06:03;;;;;;;3.08;2.17;;;;;;;21.99;61.08;99528.19;4453267;32;33279;-86
2023/06/27 05:08:31;;;;;;;0.80;0.80;;;;;;;22.46;59.58;99517.41;4453892;31;33747;-86
2023/06/27 05:10:58;;;;;;;2.03;1.83;;;;;;;22.27;60.78;99513.97;4452938;31;35301;-86
2023/06/27 05:13:26;;;;;;;1.27;0.70;;;;;;;22.65;60.89;99524.53;4469650;31;33814;-86
2023/06/27 05:15:53;;;;;;;0.32;0.32;;;;;;;22.84;61.96;99518.19;4459444;31;34152;-87
2023/06/27 05:18:22;;;;;;;2.20;0.62;;;;;;;22.93;60.91;99527.19;4465364;31;32694;-87
2023/06/27 05:20:50;;;;;;;0.52;0.52;;;;;;;22.69;61.31;99525.94;4455101;31;34813;-86
2023/06/27 05:23:18;;;;;;;0.85;0.62;;;;;;;22.77;60.88;99527.84;4464256;31;33782;-87
2023/06/27 05:25:47;;;;;;;0.85;0.85;;;;;;;22.53;61.46;99536.47;4445234;31;32569;-86
2023/06/27 05:28:15;;;;;;;0.47;0.47;;;;;;;22.55;62.61;99544.41;4465859;31;95290;-87
2023/06/27 05:30:42;;;;;;;0.47;0.47;;;;;;;22.83;62.11;99546.06;4456734;31;33913;-86
2023/06/27 05:33:10;;;;;;;1.37;1.27;;;;;;;22.74;61.78;99541.59;4442069;31;33456;-86
2023/06/27 05:35:38;;;;;;;0.73;0.57;;;;;;;22.87;61.89;99542.09;4459375;31;35177;-85
2023/06/27 05:38:06;;;;;;;1.10;1.05;;;;;;;22.95;62.37;99544.06;4469897;31;33457;-87
2023/06/27 05:40:34;;;;;;;0.95;0.40;;;;;;;23.08;62.79;99535.63;4467709;31;31818;-86
2023/06/27 05:43:02;;;;;;;2.80;1.58;;;;;;;23.14;62.02;99541.22;4459965;31;33517;-86
2023/06/27 05:45:30;;;;;;;1.42;1.20;;;;;;;23.51;61.29;99548.28;4453334;31;34176;-87
2023/06/27 05:47:57;;;;;;;1.05;0.98;;;;;;;23.86;60.58;99541.16;4482611;31;33569;-85
2023/06/27 05:50:26;;;;;;;14.07;2.20;;;;;;;24.02;59.88;99552.91;4466460;31;33414;-85
2023/06/27 05:52:54;;;;;;;1.10;1.00;;;;;;;23.84;61.51;99553.97;4465383;32;33963;-84
2023/06/27 05:55:22;;;;;;;1.12;1.05;;;;;;;23.85;61.06;99559.19;4457283;31;33216;-85
2023/06/27 05:57:49;;;;;;;2.97;2.22;;;;;;;24.09;60.31;99553.09;4466825;31;33823;-85
2023/06/27 06:00:17;;;;;;;0.90;0.85;;;;;;;24.07;60.31;99554.25;4450414;31;33340;-86
2023/06/27 06:02:45;;;;;;;0.73;0.73;;;;;;;24.00;59.49;99544.09;4438548;31;34480;-86
2023/06/27 06:05:14;;;;;;;0.95;0.77;;;;;;;23.95;59.52;99537.50;4451288;32;33395;-87
2023/06/27 06:07:43;;;;;;;1.87;1.27;;;;;;;24.03;59.23;99542.97;4450747;31;33634;-87
2023/06/27 06:10:12;;;;;;;0.30;0.30;;;;;;;24.26;59.01;99536.00;4438617;31;34319;-87
2023/06/27 06:12:40;;;;;;;4.70;0.93;;;;;;;24.19;59.36;99543.03;4442016;32;33268;-86
2023/06/27 06:15:07;;;;;;;2.45;1.55;;;;;;;24.06;60.55;99531.00;4449690;31;33055;-86
2023/06/27 06:17:35;;;;;;;1.60;1.50;;;;;;;24.31;59.31;99534.66;4439934;31;34693;-86
2023/06/27 06:20:09;;;;;;;0.52;0.50;;;;;;;24.49;58.55;99532.75;4445067;32;32587;-86
2023/06/27 06:22:37;;;;;;;1.65;1.52;;;;;;;24.66;57.65;99534.50;4435834;31;31531;-87
2023/06/27 06:25:05;;;;;;;3.62;1.77;;;;;;;24.44;58.72;99543.19;4457049;31;33619;-87
2023/06/27 06:27:33;;;;;;;1.40;0.93;;;;;;;24.51;58.25;99537.00;4433610;32;33081;-86
2023/06/27 06:30:01;;;;;;;2.15;1.95;;;;;;;24.61;59.06;99542.25;4434446;32;34359;-86
2023/06/27 06:32:30;;;;;;;1.65;1.42;;;;;;;24.56;59.29;99533.81;4437422;31;33117;-86
2023/06/27 06:35:03;;;;;;;1.58;1.48;;;;;;;24.63;58.62;99534.81;4436967;31;34151;-87
2023/06/27 06:37:48;;;;;;;1.35;1.23;;;;;;;24.88;57.90;99549.25;4456671;32;31999;-86
2023/06/27 06:40:16;;;;;;;2.60;2.08;;;;;;;24.77;58.02;99549.56;4452160;32;34531;-86
2023/06/27 06:42:44;;;;;;;4.82;2.20;;;;;;;24.82;57.68;99543.66;4444208;32;33657;-86
2023/06/27 06:45:12;;;;;;;1.20;1.02;;;;;;;24.60;58.43;99555.91;4432892;32;35062;-87
2023/06/27 06:47:40;;;;;;;4.65;1.73;;;;;;;24.60;57.66;99556.75;4456277;32;34166;-87
2023/06/27 06:50:07;;;;;;;0.77;0.77;;;;;;;24.54;57.96;99560.09;4455697;32;32735;-87
2023/06/27 06:52:38;;;;;;;0.98;0.98;;;;;;;24.94;57.47;99561.25;4434208;32;34200;-87
2023/06/27 06:55:07;;;;;;;1.08;1.08;;;;;;;25.18;56.71;99566.75;4442504;32;33424;-87
2023/06/27 06:57:35;;;;;;;2.55;1.77;;;;;;;24.79;57.32;99579.94;4442867;32;33423;-86
2023/06/27 07:00:04;;;;;;;3.22;1.48;;;;;;;24.93;57.12;99602.78;4443203;32;32246;-88
2023/06/27 07:02:32;;;;;;;1.42;1.35;;;;;;;24.85;57.24;99595.50;4432261;32;34258;-86
2023/06/27 07:05:14;;;;;;;0.50;0.50;;;;;;;24.64;56.76;99593.22;4433012;32;33995;-88
2023/06/27 07:07:43;;;;;;;1.65;1.00;;;;;;;25.01;56.07;99591.97;4441872;32;33912;-89
2023/06/27 07:10:18;;;;;;;1.67;1.58;;;;;;;24.75;56.69;99587.53;4462196;31;32254;-88
2023/06/27 07:12:57;;;;;;;;;;;;;;;25.13;55.81;99587.16;4449984;31;32595;-88
2023/06/27 07:15:44;;;;;;;1.30;1.15;;;;;;;24.57;57.13;99586.78;4452775;31;35118;-88
2023/06/27 07:18:21;;;;;;;1.12;1.02;;;;;;;24.94;56.30;99578.31;4448267;31;35036;-88
2023/06/27 07:20:58;;;;;;;0.55;0.55;;;;;;;24.98;56.40;99586.94;4452990;32;32240;-88
2023/06/27 07:23:56;;;;;;;2.92;0.93;;;;;;;24.56;57.70;99587.78;4439678;31;33481;-89
2023/06/27 07:26:27;;;;;;;2.60;1.05;;;;;;;24.68;57.75;99596.44;4439297;31;33057;-89
2023/06/27 07:29:03;;;;;;;0.93;0.93;;;;;;;25.08;56.40;99598.47;4461575;32;34239;-88
2023/06/27 07:31:34;;;;;;;1.00;0.93;;;;;;;24.89;56.66;99599.56;4449776;31;32098;-88
2023/06/27 07:34:05;;;;;;;1.55;1.15;;;;;;;24.57;58.24;99589.47;4439464;31;33955;-89
2023/06/27 07:36:36;;;;;;;1.77;1.50;;;;;;;24.90;56.90;99589.59;4449859;31;34737;-88
2023/06/27 07:39:10;;;;;;;1.30;1.20;;;;;;;24.90;56.95;99584.19;4441369;31;33675;-89
2023/06/27 07:41:39;;;;;;;3.30;0.88;;;;;;;25.22;56.68;99589.72;4449427;32;32779;-88
2023/06/27 07:44:15;;;;;;;0.90;0.90;;;;;;;25.17;57.06;99597.47;4452527;32;32875;-89
2023/06/27 07:46:42;;;;;;;2.03;1.67;;;;;;;25.12;57.31;99599.84;4456283;31;34097;-88
2023/06/27 07:49:10;;;;;;;1.55;1.27;;;;;;;25.26;56.95;99604.59;4456534;31;36413;-89
2023/06/27 07:51:38;;;;;;;1.17;1.08;;;;;;;25.19;56.64;99595.44;4469837;31;32874;-89
2023/06/27 07:54:06;;;;;;;0.77;0.70;;;;;;;25.13;57.15;99598.81;4461800;31;33284;-89
2023/06/27 07:56:34;;;;;;;1.60;1.25;;;;;;;25.21;56.31;99603.38;4453518;31;32456;-88
2023/06/27 07:59:05;;;;;;;4.18;1.02;;;;;;;25.74;55.22;99605.66;4444503;31;34699;-89
2023/06/27 08:01:33;;;;;;;1.55;1.45;;;;;;;25.69;55.19;99602.59;4444903;31;32307;-89
2023/06/27 08:04:01;;;;;;;1.48;1.37;;;;;;;25.57;56.00;99603.94;4465784;31;33011;-87
2023/06/27 08:06:29;;;;;;;0.68;0.68;;;;;;;25.53;55.57;99621.50;4477679;31;33893;-88
2023/06/27 08:08:57;;;;;;;1.50;1.40;;;;;;;25.88;54.88;99609.56;4445424;31;33760;-88
2023/06/27 08:14:56;;;;;;;1.42;1.23;;;;;;;25.56;55.65;99613.06;4484435;31;34494;-87
2023/06/27 08:17:27;;;;;;;1.90;1.80;;;;;;;25.63;53.96;99619.47;4458205;31;33017;-87
2023/06/27 08:20:05;;;;;;;1.62;1.52;;;;;;;25.80;54.37;99623.09;4452436;31;33289;-87
2023/06/27 08:22:36;;;;;;;2.55;1.77;;;;;;;25.78;54.21;99628.66;4447845;31;32459;-87
2023/06/27 08:25:07;;;;;;;1.02;0.95;;;;;;;25.34;55.51;99625.38;4450631;31;34478;-87
2023/06/27 08:27:38;;;;;;;1.20;1.10;;;;;;;25.73;54.84;99632.84;4462920;31;32950;-88
2023/06/27 08:30:07;;;;;;;2.97;1.85;;;;;;;25.59;54.80;99623.56;4478540;31;34237;-87
2023/06/27 08:32:38;;;;;;;2.22;1.95;;;;;;;25.87;54.10;99625.94;4464877;31;34106;-87
2023/06/27 08:38:42;;;;;;;0.85;0.85;;;;;;;25.56;54.91;99617.63;4489667;31;34769;-87
2023/06/27 08:41:16;;;;;;;0.85;0.85;;;;;;;25.78;54.38;99612.44;4458878;31;33022;-87
2023/06/27 08:43:47;;;;;;;0.57;0.57;;;;;;;25.77;54.53;99610.72;4450597;31;33045;-87
2023/06/27 08:46:17;;;;;;;2.15;1.50;;;;;;;25.79;54.76;99616.84;4463793;31;34908;-87
2023/06/27 08:48:53;;;;;;;1.92;1.80;;;;;;;25.87;54.50;99624.06;4471490;31;33708;-87
2023/06/27 08:51:24;;;;;;;2.03;1.70;;;;;;;25.80;54.21;99625.78;4449821;31;33122;-87
2023/06/27 08:53:59;;;;;;;0.90;0.90;;;;;;;25.90;53.73;99626.47;4464413;31;32674;-87
2023/06/27 08:56:42;;;;;;;2.58;2.37;;;;;;;25.74;54.37;99626.44;4464904;31;32846;-87
2023/06/27 08:59:19;;;;;;;2.40;1.42;;;;;;;25.81;54.09;99626.63;4447519;31;33302;-87
2023/06/27 09:01:51;;;;;;;1.52;1.05;;;;;;;25.66;55.09;99629.13;4464636;31;34179;-88
2023/06/27 09:04:22;;;;;;;5.30;1.33;;;;;;;25.58;55.63;99627.25;4450720;31;33327;-88
2023/06/27 09:06:51;;;;;;;1.52;1.17;;;;;;;25.70;55.42;99633.19;4449120;31;33183;-86
2023/06/27 09:09:19;;;;;;;2.85;1.17;;;;;;;25.65;55.62;99644.50;4461594;31;34056;-87
2023/06/27 09:11:47;;;;;;;0.93;0.93;;;;;;;25.80;55.49;99642.00;4455095;31;33283;-87
2023/06/27 09:14:33;;;;;;;3.05;1.65;;;;;;;26.13;55.23;99639.28;4440256;31;32550;-87
2023/06/27 09:17:30;;;;;;;2.05;1.58;;;;;;;26.03;55.60;99648.44;4459769;31;33005;-87
2023/06/27 09:20:01;;;;;;;;;;;;;;;26.29;54.90;99653.62;4444133;31;33370;-87
2023/06/27 09:22:31;;;;;;;1.83;1.15;;;;;;;26.30;54.61;99660.75;4445382;31;34606;-87
2023/06/27 09:25:21;;;;;;;7.70;2.83;;;;;;;26.30;54.36;99658.06;4460947;31;33964;-87
2023/06/27 09:27:51;;;;;;;1.80;1.35;;;;;;;26.41;52.98;99659.56;4455523;31;34688;-88
2023/06/27 09:30:24;;;;;;;1.87;1.50;;;;;;;26.12;54.08;99661.97;4448396;31;32878;-88
2023/06/27 09:32:55;;;;;;;1.35;1.25;;;;;;;26.32;53.06;99657.03;4450526;31;34900;-88
2023/06/27 09:35:27;;;;;;;1.15;1.10;;;;;;;26.30;53.20;99666.19;4445720;31;33079;-88
2023/06/27 09:38:15;;;;;;;1.60;1.50;;;;;;;26.35;52.45;99659.38;4466738;31;33118;-87
2023/06/27 09:40:48;;;;;;;1.17;1.08;;;;;;;26.26;53.83;99650.44;4451926;31;33464;-87
2023/06/27 09:43:19;;;;;;;5.45;1.27;;;;;;;26.11;54.68;99650.31;4448125;31;33567;-88
2023/06/27 09:45:57;;;;;;;1.67;0.52;;;;;;;26.51;53.45;99646.69;4449866;32;32940;-88
2023/06/27 09:48:25;;;;;;;1.33;1.23;;;;;;;26.08;54.67;99656.03;4450206;31;32842;-88
2023/06/27 09:51:00;;;;;;;2.42;1.60;;;;;;;26.22;53.51;99646.38;4445408;32;33156;-88
2023/06/27 09:53:29;;;;;;;1.70;1.33;;;;;;;26.70;53.58;99664.41;4450181;31;33593;-87
2023/06/27 09:56:28;;;;;;;1.42;1.33;;;;;;;27.00;52.01;99654.62;4448225;31;32765;-88
2023/06/27 09:58:56;;;;;;;1.60;1.08;;;;;;;26.50;52.56;99655.00;4440194;31;34523;-88
2023/06/27 10:01:31;;;;;;;1.33;1.23;;;;;;;26.60;52.10;99660.22;4447887;32;32480;-88
2023/06/27 10:03:59;;;;;;;1.85;1.10;;;;;;;26.66;52.66;99668.47;4450340;31;32987;-88
2023/06/27 10:06:30;;;;;;;0.98;0.90;;;;;;;26.89;52.25;99675.88;4451011;31;33678;-88
2023/06/27 10:08:58;;;;;;;2.17;1.73;;;;;;;26.95;51.79;99673.28;4450810;31;32730;-88
2023/06/27 10:11:27;;;;;;;1.65;1.50;;;;;;;27.23;51.75;99668.28;4448307;31;34959;-88
2023/06/27 10:13:55;;;;;;;0.50;0.47;;;;;;;26.84;52.38;99670.12;4439315;32;33035;-88
2023/06/27 10:16:23;;;;;;;1.02;0.65;;;;;;;27.18;50.60;99665.25;4434255;32;32340;-85
2023/06/27 10:18:53;;;;;;;1.95;1.17;;;;;;;27.34;51.37;99668.91;4439763;31;32966;-86
2023/06/27 10:21:22;;;;;;;1.90;0.98;;;;;;;27.33;50.64;99659.09;4450345;31;34340;-86
2023/06/27 10:23:52;;;;;;;1.20;0.90;;;;;;;27.48;51.06;99654.56;4445870;31;32208;-86
2023/06/27 10:26:20;;;;;;;0.68;0.68;;;;;;;27.00;50.25;99656.50;4445907;31;32851;-85
2023/06/27 10:28:49;;;;;;;1.08;1.00;;;;;;;27.01;50.15;99642.81;4446616;31;33965;-86
2023/06/27 10:31:44;;;;;;;1.92;1.17;;;;;;;27.17;50.41;99655.44;4438641;31;33146;-86
2023/06/27 10:34:18;;;;;;;0.80;0.80;;;;;;;27.22;49.56;99663.88;4450153;31;34015;-86
2023/06/27 10:37:05;;;;;;;2.87;0.98;;;;;;;27.10;48.34;99665.28;4445301;31;33418;-87
2023/06/27 10:39:34;;;;;;;9.10;1.75;;;;;;;27.58;47.61;99671.44;4454539;31;33487;-87
2023/06/27 10:42:20;;;;;;;0.65;0.65;;;;;;;26.81;49.33;99682.97;4458832;31;33781;-88
2023/06/27 10:44:54;;;;;;;0.70;0.68;;;;;;;26.64;48.55;99694.06;4466038;31;33339;-87
2023/06/27 10:47:26;;;;;;;0.80;0.80;;;;;;;26.83;47.24;99700.94;4470173;31;33147;-87
2023/06/27 10:50:03;;;;;;;1.23;0.98;;;;;;;26.76;47.19;99709.75;4457190;31;33079;-87
2023/06/27 10:52:30;;;;;;;3.03;1.77;;;;;;;27.10;46.92;99705.09;4461245;31;33091;-87
2023/06/27 10:55:14;;;;;;;1.27;0.55;;;;;;;27.06;47.06;99704.56;4463674;31;33947;-86
2023/06/27 10:57:43;;;;;;;2.37;0.95;;;;;;;26.74;48.18;99709.09;4468676;31;32952;-87
2023/06/27 11:00:15;;;;;;;1.33;0.88;;;;;;;26.92;47.75;99702.59;4449048;31;33245;-86
2023/06/27 11:02:45;;;;;;;0.70;0.70;;;;;;;26.79;46.75;99706.72;4451137;31;33085;-87
2023/06/27 11:05:18;;;;;;;0.47;0.47;;;;;;;26.55;47.46;99706.78;4435463;31;34287;-86
2023/06/27 11:07:53;;;;;;;0.68;0.60;;;;;;;26.84;46.32;99713.47;4446181;31;33112;-87
2023/06/27 11:10:24;;;;;;;2.00;1.30;;;;;;;26.59;47.21;99718.97;4454725;31;33901;-87
2023/06/27 11:13:16;;;;;;;1.17;1.17;;;;;;;26.16;48.33;99723.69;4440185;32;33576;-87
2023/06/27 11:15:45;;;;;;;0.73;0.73;;;;;;;26.21;48.38;99718.63;4468519;31;34709;-87
2023/06/27 11:18:14;;;;;;;2.03;0.73;;;;;;;26.20;47.86;99725.03;4446540;31;32652;-87
2023/06/27 11:20:43;;;;;;;0.37;0.37;;;;;;;26.58;46.60;99743.47;4456004;31;33767;-86
2023/06/27 11:23:12;;;;;;;0.73;0.73;;;;;;;26.19;48.28;99736.03;4450727;31;33397;-87
2023/06/27 11:25:44;;;;;;;0.80;0.77;;;;;;;26.16;48.31;99745.34;4468990;31;33721;-87
2023/06/27 11:28:25;;;;;;;0.60;0.60;;;;;;;26.29;48.45;99759.19;4442065;32;32754;-87
2023/06/27 11:30:59;;;;;;;4.37;1.65;;;;;;;26.30;49.04;99762.75;4445542;31;34318;-87
2023/06/27 11:33:30;;;;;;;4.43;1.08;;;;;;;26.34;49.49;99772.22;4454866;31;34231;-87
2023/06/27 11:35:59;;;;;;;0.40;0.40;;;;;;;26.35;49.65;99762.25;4457896;31;33019;-87
2023/06/27 11:38:28;;;;;;;6.47;1.40;;;;;;;26.18;50.51;99754.12;4445856;31;32513;-87
2023/06/27 11:40:57;;;;;;;1.17;1.08;;;;;;;26.08;51.13;99748.03;4455122;31;34097;-87
2023/06/27 11:43:26;;;;;;;2.72;1.98;;;;;;;26.11;51.47;99749.53;4451942;31;33621;-86
2023/06/27 11:46:00;;;;;;;1.17;1.10;;;;;;;26.18;51.33;99756.84;4463522;31;33220;-87
2023/06/27 11:48:28;;;;;;;1.30;1.23;;;;;;;26.59;50.27;99762.28;4466263;31;34762;-87
2023/06/27 11:51:03;;;;;;;4.87;1.27;;;;;;;26.10;50.72;99775.75;4455199;31;34032;-87
2023/06/27 11:53:33;;;;;;;1.10;1.00;;;;;;;26.21;49.75;99770.03;4465989;31;32725;-87
2023/06/27 11:56:02;;;;;;;0.75;0.75;;;;;;;25.68;51.36;99768.53;4458945;31;33184;-87